McGaheysville, Virginia
Current Conditions -  °F | °C
As of 9:35 AM on Tuesday 21 Oct 2014 (Local Time) from KSHD Reporting Station
Clear Clear  
Wind Chill: 57°   Ceiling: Unl
Heat Index: 57°   Visibility: 10mi
Dew Point: 48°   Wind: 3mph
Humidity: 72%   Direction: 210°SSW
Pressure: 29.93"   Gusts: NA
Location:  38.37°N, 78.73°W
Report Text: KSHD 211335Z AUTO 21003KT 10SM CLR 14/09 A2993 RMK AO2 T01390089
Loading
Personal Weather Stations






























Interactive Weather Map New forecast layout! Learn more

10-Day Weather Forecast

Advertisements
Track Severe Weather on mobile